sensor_id;sensor_type;location;lat;lon;timestamp;pressure;altitude;pressure_sealevel;temperature;humidity
45441;BME280;31189;38.790;-77.084;2023-12-04T00:02:01;100342.67;;;19.74;53.58
45441;BME280;31189;38.790;-77.084;2023-12-04T00:04:27;100353.46;;;19.76;53.11
45441;BME280;31189;38.790;-77.084;2023-12-04T00:06:52;100353.43;;;19.61;53.26
45441;BME280;31189;38.790;-77.084;2023-12-04T00:09:18;100354.98;;;19.41;53.58
45441;BME280;31189;38.790;-77.084;2023-12-04T00:11:43;100362.08;;;18.89;54.79
45441;BME280;31189;38.790;-77.084;2023-12-04T00:14:08;100369.45;;;19.44;54.25
45441;BME280;31189;38.790;-77.084;2023-12-04T00:16:34;100381.40;;;19.51;53.60
45441;BME280;31189;38.790;-77.084;2023-12-04T00:18:59;100379.01;;;19.84;53.38
45441;BME280;31189;38.790;-77.084;2023-12-04T00:21:25;100376.99;;;19.62;53.47
45441;BME280;31189;38.790;-77.084;2023-12-04T00:23:50;100373.13;;;19.64;54.54
45441;BME280;31189;38.790;-77.084;2023-12-04T00:26:16;100378.21;;;19.87;53.93
45441;BME280;31189;38.790;-77.084;2023-12-04T00:28:40;100383.34;;;19.23;53.99
45441;BME280;31189;38.790;-77.084;2023-12-04T00:31:06;100386.50;;;19.67;53.50
45441;BME280;31189;38.790;-77.084;2023-12-04T00:33:32;100385.81;;;19.56;53.18
45441;BME280;31189;38.790;-77.084;2023-12-04T00:35:57;100386.91;;;19.88;53.14
45441;BME280;31189;38.790;-77.084;2023-12-04T00:38:22;100400.94;;;19.61;52.92
45441;BME280;31189;38.790;-77.084;2023-12-04T00:40:48;100400.11;;;19.86;53.25
45441;BME280;31189;38.790;-77.084;2023-12-04T00:43:13;100404.04;;;19.55;53.48
45441;BME280;31189;38.790;-77.084;2023-12-04T00:45:39;100409.33;;;19.50;53.61
45441;BME280;31189;38.790;-77.084;2023-12-04T00:48:05;100410.50;;;19.21;54.36
45441;BME280;31189;38.790;-77.084;2023-12-04T00:50:29;100412.17;;;19.39;54.10
45441;BME280;31189;38.790;-77.084;2023-12-04T00:52:55;100415.19;;;19.46;54.10
45441;BME280;31189;38.790;-77.084;2023-12-04T00:55:20;100415.02;;;19.32;55.03
45441;BME280;31189;38.790;-77.084;2023-12-04T00:57:46;100417.53;;;19.69;53.35
45441;BME280;31189;38.790;-77.084;2023-12-04T01:00:12;100415.54;;;19.51;53.20
45441;BME280;31189;38.790;-77.084;2023-12-04T01:02:37;100414.80;;;19.52;53.04
45441;BME280;31189;38.790;-77.084;2023-12-04T01:05:02;100413.38;;;19.78;52.90
45441;BME280;31189;38.790;-77.084;2023-12-04T01:07:28;100413.59;;;19.56;52.62
45441;BME280;31189;38.790;-77.084;2023-12-04T01:09:53;100416.07;;;19.56;52.91
45441;BME280;31189;38.790;-77.084;2023-12-04T01:12:18;100427.95;;;19.81;53.11
45441;BME280;31189;38.790;-77.084;2023-12-04T01:14:44;100431.72;;;19.16;52.62
45441;BME280;31189;38.790;-77.084;2023-12-04T01:17:10;100432.17;;;18.95;53.50
45441;BME280;31189;38.790;-77.084;2023-12-04T01:19:35;100428.82;;;19.37;53.11
45441;BME280;31189;38.790;-77.084;2023-12-04T01:22:00;100435.36;;;18.57;53.09
45441;BME280;31189;38.790;-77.084;2023-12-04T01:24:26;100428.65;;;19.23;52.90
45441;BME280;31189;38.790;-77.084;2023-12-04T01:26:51;100435.32;;;19.26;53.12
45441;BME280;31189;38.790;-77.084;2023-12-04T01:29:16;100439.28;;;18.97;52.59
45441;BME280;31189;38.790;-77.084;2023-12-04T01:31:42;100447.02;;;18.51;53.03
45441;BME280;31189;38.790;-77.084;2023-12-04T01:34:07;100452.16;;;18.84;53.21
45441;BME280;31189;38.790;-77.084;2023-12-04T01:36:33;100437.82;;;18.48;53.24
45441;BME280;31189;38.790;-77.084;2023-12-04T01:38:58;100442.89;;;17.99;53.61
45441;BME280;31189;38.790;-77.084;2023-12-04T01:41:24;100445.58;;;17.59;53.75
45441;BME280;31189;38.790;-77.084;2023-12-04T01:43:49;100448.29;;;18.30;53.21
45441;BME280;31189;38.790;-77.084;2023-12-04T01:46:16;100450.24;;;18.46;52.58
45441;BME280;31189;38.790;-77.084;2023-12-04T01:48:41;100455.49;;;18.51;51.97
45441;BME280;31189;38.790;-77.084;2023-12-04T01:51:07;100452.38;;;18.44;51.91
45441;BME280;31189;38.790;-77.084;2023-12-04T01:53:33;100450.33;;;18.22;51.60
45441;BME280;31189;38.790;-77.084;2023-12-04T01:55:58;100456.83;;;18.67;51.95
45441;BME280;31189;38.790;-77.084;2023-12-04T01:58:23;100451.34;;;18.58;51.80
45441;BME280;31189;38.790;-77.084;2023-12-04T02:00:48;100441.69;;;17.98;51.73
45441;BME280;31189;38.790;-77.084;2023-12-04T02:03:14;100458.72;;;17.92;51.43
45441;BME280;31189;38.790;-77.084;2023-12-04T02:05:40;100455.26;;;17.36;52.62
45441;BME280;31189;38.790;-77.084;2023-12-04T02:08:04;100450.79;;;17.91;52.42
45441;BME280;31189;38.790;-77.084;2023-12-04T02:10:30;100459.68;;;18.14;51.90
45441;BME280;31189;38.790;-77.084;2023-12-04T02:12:54;100459.82;;;17.94;51.69
45441;BME280;31189;38.790;-77.084;2023-12-04T02:15:20;100459.76;;;16.57;54.03
45441;BME280;31189;38.790;-77.084;2023-12-04T02:17:46;100462.12;;;16.61;54.06
45441;BME280;31189;38.790;-77.084;2023-12-04T02:20:14;100453.41;;;16.84;52.90
45441;BME280;31189;38.790;-77.084;2023-12-04T02:22:38;100459.32;;;16.95;53.80
45441;BME280;31189;38.790;-77.084;2023-12-04T02:25:03;100465.84;;;16.71;53.71
45441;BME280;31189;38.790;-77.084;2023-12-04T02:27:30;100464.53;;;16.86;53.57
45441;BME280;31189;38.790;-77.084;2023-12-04T02:29:59;100471.95;;;17.29;51.55
45441;BME280;31189;38.790;-77.084;2023-12-04T02:32:19;100476.38;;;17.33;51.06
45441;BME280;31189;38.790;-77.084;2023-12-04T02:34:44;100468.08;;;16.83;51.31
45441;BME280;31189;38.790;-77.084;2023-12-04T02:37:10;100465.87;;;16.59;51.52
45441;BME280;31189;38.790;-77.084;2023-12-04T02:39:34;100461.79;;;15.14;55.44
45441;BME280;31189;38.790;-77.084;2023-12-04T02:42:01;100466.68;;;16.71;52.42
45441;BME280;31189;38.790;-77.084;2023-12-04T02:44:26;100466.72;;;16.59;52.23
45441;BME280;31189;38.790;-77.084;2023-12-04T02:46:51;100469.79;;;16.86;50.95
45441;BME280;31189;38.790;-77.084;2023-12-04T02:49:17;100465.23;;;15.59;53.71
45441;BME280;31189;38.790;-77.084;2023-12-04T02:51:42;100477.70;;;16.11;52.38
45441;BME280;31189;38.790;-77.084;2023-12-04T02:54:07;100477.27;;;16.72;51.36
45441;BME280;31189;38.790;-77.084;2023-12-04T02:56:34;100484.38;;;15.53;52.49
45441;BME280;31189;38.790;-77.084;2023-12-04T02:58:59;100497.17;;;16.54;51.27
45441;BME280;31189;38.790;-77.084;2023-12-04T03:01:24;100500.15;;;16.43;51.86
45441;BME280;31189;38.790;-77.084;2023-12-04T03:03:49;100490.26;;;16.37;51.38
45441;BME280;31189;38.790;-77.084;2023-12-04T03:06:14;100488.16;;;16.68;51.97
45441;BME280;31189;38.790;-77.084;2023-12-04T03:08:40;100490.21;;;17.01;52.14
45441;BME280;31189;38.790;-77.084;2023-12-04T03:11:06;100499.06;;;14.22;56.48
45441;BME280;31189;38.790;-77.084;2023-12-04T03:13:33;100500.18;;;16.10;51.91
45441;BME280;31189;38.790;-77.084;2023-12-04T03:15:58;100499.40;;;16.55;50.62
45441;BME280;31189;38.790;-77.084;2023-12-04T03:18:23;100492.86;;;16.35;50.50
45441;BME280;31189;38.790;-77.084;2023-12-04T03:20:48;100492.98;;;15.95;50.92
45441;BME280;31189;38.790;-77.084;2023-12-04T03:23:14;100498.41;;;16.03;51.39
45441;BME280;31189;38.790;-77.084;2023-12-04T03:25:40;100497.95;;;16.13;49.93
45441;BME280;31189;38.790;-77.084;2023-12-04T03:28:05;100508.36;;;16.09;50.11
45441;BME280;31189;38.790;-77.084;2023-12-04T03:30:30;100521.50;;;15.90;49.90
45441;BME280;31189;38.790;-77.084;2023-12-04T03:32:55;100526.15;;;16.14;49.94
45441;BME280;31189;38.790;-77.084;2023-12-04T03:35:21;100523.53;;;15.46;50.56
45441;BME280;31189;38.790;-77.084;2023-12-04T03:37:46;100525.00;;;15.60;51.54
45441;BME280;31189;38.790;-77.084;2023-12-04T03:40:12;100532.72;;;16.08;50.61
45441;BME280;31189;38.790;-77.084;2023-12-04T03:42:36;100542.54;;;16.07;50.55
45441;BME280;31189;38.790;-77.084;2023-12-04T03:45:02;100541.00;;;15.00;51.78
45441;BME280;31189;38.790;-77.084;2023-12-04T03:47:27;100537.17;;;15.21;53.14
45441;BME280;31189;38.790;-77.084;2023-12-04T03:49:53;100532.14;;;15.38;52.30
45441;BME280;31189;38.790;-77.084;2023-12-04T03:52:18;100536.82;;;15.41;53.30
45441;BME280;31189;38.790;-77.084;2023-12-04T03:54:44;100547.23;;;15.58;52.82
45441;BME280;31189;38.790;-77.084;2023-12-04T03:57:09;100551.24;;;15.41;51.36
45441;BME280;31189;38.790;-77.084;2023-12-04T03:59:35;100549.24;;;15.12;52.52
45441;BME280;31189;38.790;-77.084;2023-12-04T04:02:01;100552.75;;;15.96;50.59
45441;BME280;31189;38.790;-77.084;2023-12-04T04:04:26;100546.67;;;15.91;49.72
45441;BME280;31189;38.790;-77.084;2023-12-04T04:06:52;100547.19;;;15.37;51.13
45441;BME280;31189;38.790;-77.084;2023-12-04T04:09:17;100546.41;;;15.28;50.54
45441;BME280;31189;38.790;-77.084;2023-12-04T04:11:43;100547.97;;;14.90;51.10
45441;BME280;31189;38.790;-77.084;2023-12-04T04:14:09;100543.56;;;15.53;50.68
45441;BME280;31189;38.790;-77.084;2023-12-04T04:16:34;100528.89;;;15.78;50.76
45441;BME280;31189;38.790;-77.084;2023-12-04T04:19:00;100531.71;;;15.37;49.65
45441;BME280;31189;38.790;-77.084;2023-12-04T04:21:26;100536.94;;;15.35;49.81
45441;BME280;31189;38.790;-77.084;2023-12-04T04:23:51;100542.89;;;14.70;52.03
45441;BME280;31189;38.790;-77.084;2023-12-04T04:26:16;100553.69;;;15.27;50.93
45441;BME280;31189;38.790;-77.084;2023-12-04T04:28:42;100550.69;;;14.36;50.23
45441;BME280;31189;38.790;-77.084;2023-12-04T04:31:08;100541.46;;;15.18;50.87
45441;BME280;31189;38.790;-77.084;2023-12-04T04:33:33;100546.34;;;15.18;51.25
45441;BME280;31189;38.790;-77.084;2023-12-04T04:35:58;100544.26;;;15.08;50.28
45441;BME280;31189;38.790;-77.084;2023-12-04T04:38:24;100551.94;;;14.88;50.30
45441;BME280;31189;38.790;-77.084;2023-12-04T04:40:49;100560.48;;;14.78;51.50
45441;BME280;31189;38.790;-77.084;2023-12-04T04:43:15;100565.98;;;14.59;50.23
45441;BME280;31189;38.790;-77.084;2023-12-04T04:45:40;100567.49;;;14.56;50.29
45441;BME280;31189;38.790;-77.084;2023-12-04T04:48:05;100561.78;;;13.59;52.60
45441;BME280;31189;38.790;-77.084;2023-12-04T04:50:31;100565.18;;;12.42;59.47
45441;BME280;31189;38.790;-77.084;2023-12-04T04:52:56;100562.87;;;13.70;54.80
45441;BME280;31189;38.790;-77.084;2023-12-04T04:55:22;100559.88;;;13.02;56.66
45441;BME280;31189;38.790;-77.084;2023-12-04T04:57:47;100560.64;;;11.95;58.21
45441;BME280;31189;38.790;-77.084;2023-12-04T05:00:13;100563.27;;;10.62;62.22
45441;BME280;31189;38.790;-77.084;2023-12-04T05:02:39;100563.71;;;10.80;60.80
45441;BME280;31189;38.790;-77.084;2023-12-04T05:05:05;100577.58;;;11.37;55.13
45441;BME280;31189;38.790;-77.084;2023-12-04T05:07:30;100587.41;;;11.25;50.79
45441;BME280;31189;38.790;-77.084;2023-12-04T05:09:55;100597.58;;;12.62;50.49
45441;BME280;31189;38.790;-77.084;2023-12-04T05:12:21;100606.82;;;13.55;47.42
45441;BME280;31189;38.790;-77.084;2023-12-04T05:14:47;100614.79;;;12.92;46.06
45441;BME280;31189;38.790;-77.084;2023-12-04T05:17:12;100614.45;;;11.60;47.56
45441;BME280;31189;38.790;-77.084;2023-12-04T05:19:38;100616.61;;;12.44;43.23
45441;BME280;31189;38.790;-77.084;2023-12-04T05:22:04;100623.58;;;13.97;44.99
45441;BME280;31189;38.790;-77.084;2023-12-04T05:24:29;100627.50;;;12.82;44.92
45441;BME280;31189;38.790;-77.084;2023-12-04T05:26:55;100633.32;;;10.37;47.42
45441;BME280;31189;38.790;-77.084;2023-12-04T05:29:20;100641.42;;;12.77;42.57
45441;BME280;31189;38.790;-77.084;2023-12-04T05:31:47;100652.30;;;13.07;45.19
45441;BME280;31189;38.790;-77.084;2023-12-04T05:34:12;100649.52;;;12.48;45.14
45441;BME280;31189;38.790;-77.084;2023-12-04T05:36:37;100650.87;;;10.82;44.15
45441;BME280;31189;38.790;-77.084;2023-12-04T05:39:03;100658.94;;;11.17;44.70
45441;BME280;31189;38.790;-77.084;2023-12-04T05:41:29;100644.72;;;11.61;47.45
45441;BME280;31189;38.790;-77.084;2023-12-04T05:43:54;100644.21;;;11.69;45.41
45441;BME280;31189;38.790;-77.084;2023-12-04T05:46:20;100651.89;;;9.79;45.15
45441;BME280;31189;38.790;-77.084;2023-12-04T05:48:46;100648.08;;;10.53;42.27
45441;BME280;31189;38.790;-77.084;2023-12-04T05:51:11;100649.09;;;9.58;42.52
45441;BME280;31189;38.790;-77.084;2023-12-04T05:53:36;100652.76;;;9.42;43.45
45441;BME280;31189;38.790;-77.084;2023-12-04T05:56:04;100651.62;;;10.88;43.26
45441;BME280;31189;38.790;-77.084;2023-12-04T05:58:28;100656.30;;;10.90;41.15
45441;BME280;31189;38.790;-77.084;2023-12-04T06:00:53;100665.24;;;11.62;43.11
45441;BME280;31189;38.790;-77.084;2023-12-04T06:03:19;100660.92;;;12.04;40.41
45441;BME280;31189;38.790;-77.084;2023-12-04T06:05:45;100675.45;;;13.51;37.43
45441;BME280;31189;38.790;-77.084;2023-12-04T06:08:10;100685.08;;;14.31;38.38
45441;BME280;31189;38.790;-77.084;2023-12-04T06:10:36;100679.01;;;11.74;35.23
45441;BME280;31189;38.790;-77.084;2023-12-04T06:13:02;100693.76;;;12.50;37.91
45441;BME280;31189;38.790;-77.084;2023-12-04T06:15:27;100700.48;;;12.86;37.82
45441;BME280;31189;38.790;-77.084;2023-12-04T06:17:53;100703.80;;;11.70;36.50
45441;BME280;31189;38.790;-77.084;2023-12-04T06:20:18;100715.25;;;12.52;38.17
45441;BME280;31189;38.790;-77.084;2023-12-04T06:22:45;100709.35;;;11.63;35.37
45441;BME280;31189;38.790;-77.084;2023-12-04T06:25:11;100714.38;;;12.52;35.83
45441;BME280;31189;38.790;-77.084;2023-12-04T06:27:36;100718.72;;;12.05;36.89
45441;BME280;31189;38.790;-77.084;2023-12-04T06:30:01;100714.99;;;13.39;36.67
45441;BME280;31189;38.790;-77.084;2023-12-04T06:32:27;100715.93;;;14.04;36.05
45441;BME280;31189;38.790;-77.084;2023-12-04T06:34:53;100722.19;;;13.67;34.01
45441;BME280;31189;38.790;-77.084;2023-12-04T06:37:18;100727.41;;;14.72;34.96
45441;BME280;31189;38.790;-77.084;2023-12-04T06:39:45;100731.76;;;14.95;34.93
45441;BME280;31189;38.790;-77.084;2023-12-04T06:42:11;100730.95;;;14.81;34.55
45441;BME280;31189;38.790;-77.084;2023-12-04T06:44:35;100731.67;;;15.28;33.42
45441;BME280;31189;38.790;-77.084;2023-12-04T06:47:01;100736.55;;;13.71;33.11
45441;BME280;31189;38.790;-77.084;2023-12-04T06:49:28;100731.90;;;14.60;31.48
45441;BME280;31189;38.790;-77.084;2023-12-04T06:51:52;100732.72;;;15.20;33.51
45441;BME280;31189;38.790;-77.084;2023-12-04T06:54:17;100733.39;;;14.96;34.20
45441;BME280;31189;38.790;-77.084;2023-12-04T06:56:43;100738.56;;;13.82;32.16
45441;BME280;31189;38.790;-77.084;2023-12-04T06:59:08;100741.73;;;14.14;33.22
45441;BME280;31189;38.790;-77.084;2023-12-04T07:01:34;100744.84;;;14.55;34.40
45441;BME280;31189;38.790;-77.084;2023-12-04T07:04:00;100731.58;;;14.45;33.45
45441;BME280;31189;38.790;-77.084;2023-12-04T07:06:25;100722.06;;;13.32;33.57
45441;BME280;31189;38.790;-77.084;2023-12-04T07:08:51;100721.93;;;14.13;34.20
45441;BME280;31189;38.790;-77.084;2023-12-04T07:11:17;100718.62;;;14.82;34.56
45441;BME280;31189;38.790;-77.084;2023-12-04T07:13:42;100719.86;;;14.84;33.08
45441;BME280;31189;38.790;-77.084;2023-12-04T07:16:09;100726.33;;;14.89;33.67
45441;BME280;31189;38.790;-77.084;2023-12-04T07:18:34;100724.43;;;14.28;34.46
45441;BME280;31189;38.790;-77.084;2023-12-04T07:20:59;100728.22;;;14.05;34.76
45441;BME280;31189;38.790;-77.084;2023-12-04T07:23:25;100723.95;;;14.06;34.04
45441;BME280;31189;38.790;-77.084;2023-12-04T07:25:50;100732.21;;;14.68;33.88
45441;BME280;31189;38.790;-77.084;2023-12-04T07:28:16;100727.63;;;13.64;32.13
45441;BME280;31189;38.790;-77.084;2023-12-04T07:30:41;100735.57;;;11.88;34.66
45441;BME280;31189;38.790;-77.084;2023-12-04T07:33:07;100736.54;;;11.64;34.22
45441;BME280;31189;38.790;-77.084;2023-12-04T07:35:33;100737.08;;;13.36;35.52
45441;BME280;31189;38.790;-77.084;2023-12-04T07:37:58;100739.13;;;12.64;35.40
45441;BME280;31189;38.790;-77.084;2023-12-04T07:40:24;100739.61;;;11.87;37.16
45441;BME280;31189;38.790;-77.084;2023-12-04T07:42:50;100740.49;;;10.77;36.77
45441;BME280;31189;38.790;-77.084;2023-12-04T07:45:15;100747.07;;;11.86;35.79
45441;BME280;31189;38.790;-77.084;2023-12-04T07:47:41;100740.23;;;12.69;34.83
45441;BME280;31189;38.790;-77.084;2023-12-04T07:50:07;100743.73;;;13.63;34.04
45441;BME280;31189;38.790;-77.084;2023-12-04T07:52:32;100740.46;;;13.39;32.55
45441;BME280;31189;38.790;-77.084;2023-12-04T07:54:58;100739.14;;;13.67;33.78
45441;BME280;31189;38.790;-77.084;2023-12-04T07:57:24;100746.74;;;13.61;34.14
45441;BME280;31189;38.790;-77.084;2023-12-04T07:59:49;100752.99;;;13.98;33.49
45441;BME280;31189;38.790;-77.084;2023-12-04T08:02:15;100757.91;;;10.97;33.59
45441;BME280;31189;38.790;-77.084;2023-12-04T08:04:40;100756.03;;;12.15;34.46
45441;BME280;31189;38.790;-77.084;2023-12-04T08:07:06;100752.67;;;13.62;34.29
45441;BME280;31189;38.790;-77.084;2023-12-04T08:09:32;100757.10;;;11.74;36.32
45441;BME280;31189;38.790;-77.084;2023-12-04T08:11:58;100765.12;;;13.13;33.08
45441;BME280;31189;38.790;-77.084;2023-12-04T08:14:23;100760.68;;;12.09;34.86
45441;BME280;31189;38.790;-77.084;2023-12-04T08:16:49;100764.22;;;10.35;35.06
45441;BME280;31189;38.790;-77.084;2023-12-04T08:19:15;100759.64;;;12.35;34.37
45441;BME280;31189;38.790;-77.084;2023-12-04T08:21:40;100763.65;;;12.26;33.71
45441;BME280;31189;38.790;-77.084;2023-12-04T08:24:06;100760.13;;;12.13;35.08
45441;BME280;31189;38.790;-77.084;2023-12-04T08:26:31;100765.22;;;13.61;33.23
45441;BME280;31189;38.790;-77.084;2023-12-04T08:28:57;100766.36;;;12.11;32.87
45441;BME280;31189;38.790;-77.084;2023-12-04T08:31:22;100761.71;;;13.97;33.60
45441;BME280;31189;38.790;-77.084;2023-12-04T08:33:48;100752.08;;;14.05;32.16
45441;BME280;31189;38.790;-77.084;2023-12-04T08:36:13;100752.47;;;13.96;32.39
45441;BME280;31189;38.790;-77.084;2023-12-04T08:38:39;100751.44;;;10.52;33.95
45441;BME280;31189;38.790;-77.084;2023-12-04T08:41:05;100750.72;;;11.99;33.43
45441;BME280;31189;38.790;-77.084;2023-12-04T08:43:30;100750.10;;;13.22;32.58
45441;BME280;31189;38.790;-77.084;2023-12-04T08:45:56;100751.63;;;13.35;34.01
45441;BME280;31189;38.790;-77.084;2023-12-04T08:48:21;100750.33;;;14.29;32.35
45441;BME280;31189;38.790;-77.084;2023-12-04T08:50:47;100744.88;;;14.59;31.70
45441;BME280;31189;38.790;-77.084;2023-12-04T08:53:13;100741.77;;;14.71;31.36
45441;BME280;31189;38.790;-77.084;2023-12-04T08:55:38;100743.70;;;14.39;31.25
45441;BME280;31189;38.790;-77.084;2023-12-04T08:58:04;100746.22;;;13.43;31.09
45441;BME280;31189;38.790;-77.084;2023-12-04T09:00:30;100746.98;;;10.38;33.00
45441;BME280;31189;38.790;-77.084;2023-12-04T09:02:55;100746.97;;;13.83;31.84
45441;BME280;31189;38.790;-77.084;2023-12-04T09:05:21;100746.19;;;14.73;31.09
45441;BME280;31189;38.790;-77.084;2023-12-04T09:07:47;100746.68;;;15.22;29.72
45441;BME280;31189;38.790;-77.084;2023-12-04T09:10:12;100748.66;;;14.31;30.05
45441;BME280;31189;38.790;-77.084;2023-12-04T09:12:38;100747.89;;;13.46;31.24
45441;BME280;31189;38.790;-77.084;2023-12-04T09:15:05;100747.43;;;14.46;32.65
45441;BME280;31189;38.790;-77.084;2023-12-04T09:17:29;100750.15;;;15.26;31.44
45441;BME280;31189;38.790;-77.084;2023-12-04T09:19:55;100747.33;;;14.82;30.69
45441;BME280;31189;38.790;-77.084;2023-12-04T09:22:20;100745.00;;;14.43;30.98
45441;BME280;31189;38.790;-77.084;2023-12-04T09:24:46;100744.87;;;14.73;32.36
45441;BME280;31189;38.790;-77.084;2023-12-04T09:27:12;100753.67;;;14.69;32.34
45441;BME280;31189;38.790;-77.084;2023-12-04T09:29:37;100752.52;;;14.76;33.50
45441;BME280;31189;38.790;-77.084;2023-12-04T09:32:03;100754.13;;;14.54;34.06
45441;BME280;31189;38.790;-77.084;2023-12-04T09:34:28;100749.02;;;13.16;35.73
45441;BME280;31189;38.790;-77.084;2023-12-04T09:36:54;100749.48;;;14.02;35.01
45441;BME280;31189;38.790;-77.084;2023-12-04T09:39:20;100749.23;;;13.65;36.07
45441;BME280;31189;38.790;-77.084;2023-12-04T09:41:46;100737.67;;;14.17;34.89
45441;BME280;31189;38.790;-77.084;2023-12-04T09:44:12;100731.63;;;13.60;37.13
45441;BME280;31189;38.790;-77.084;2023-12-04T09:46:37;100731.26;;;13.62;37.63
45441;BME280;31189;38.790;-77.084;2023-12-04T09:49:03;100736.01;;;13.93;37.15
45441;BME280;31189;38.790;-77.084;2023-12-04T09:51:28;100735.27;;;13.15;39.14
45441;BME280;31189;38.790;-77.084;2023-12-04T09:53:54;100736.00;;;13.76;37.53
45441;BME280;31189;38.790;-77.084;2023-12-04T09:56:19;100739.04;;;12.01;38.22
45441;BME280;31189;38.790;-77.084;2023-12-04T09:58:45;100744.55;;;13.30;37.54
45441;BME280;31189;38.790;-77.084;2023-12-04T10:01:11;100749.45;;;13.86;37.91
45441;BME280;31189;38.790;-77.084;2023-12-04T10:03:37;100748.37;;;13.42;38.28
45441;BME280;31189;38.790;-77.084;2023-12-04T10:06:02;100751.57;;;13.79;37.84
45441;BME280;31189;38.790;-77.084;2023-12-04T10:08:27;100752.55;;;12.99;38.71
45441;BME280;31189;38.790;-77.084;2023-12-04T10:10:53;100761.61;;;13.52;38.30
45441;BME280;31189;38.790;-77.084;2023-12-04T10:13:18;100758.81;;;13.06;38.10
45441;BME280;31189;38.790;-77.084;2023-12-04T10:15:47;100757.73;;;13.82;38.04
45441;BME280;31189;38.790;-77.084;2023-12-04T10:20:35;100762.37;;;13.17;39.22
45441;BME280;31189;38.790;-77.084;2023-12-04T10:23:01;100760.28;;;13.54;38.86
45441;BME280;31189;38.790;-77.084;2023-12-04T10:25:27;100760.34;;;13.41;39.32
45441;BME280;31189;38.790;-77.084;2023-12-04T10:27:52;100758.95;;;13.24;39.47
45441;BME280;31189;38.790;-77.084;2023-12-04T10:30:25;100752.68;;;12.63;38.88
45441;BME280;31189;38.790;-77.084;2023-12-04T10:32:43;100759.82;;;13.12;38.63
45441;BME280;31189;38.790;-77.084;2023-12-04T10:35:09;100756.21;;;13.37;37.86
45441;BME280;31189;38.790;-77.084;2023-12-04T10:37:36;100760.25;;;13.49;37.50
45441;BME280;31189;38.790;-77.084;2023-12-04T10:40:00;100764.01;;;13.29;38.65
45441;BME280;31189;38.790;-77.084;2023-12-04T10:42:26;100774.82;;;13.32;39.01
45441;BME280;31189;38.790;-77.084;2023-12-04T10:44:51;100781.64;;;12.76;39.21
45441;BME280;31189;38.790;-77.084;2023-12-04T10:47:16;100791.05;;;13.43;39.18
45441;BME280;31189;38.790;-77.084;2023-12-04T10:49:43;100792.30;;;13.45;39.78
45441;BME280;31189;38.790;-77.084;2023-12-04T10:52:07;100802.95;;;13.37;39.24
45441;BME280;31189;38.790;-77.084;2023-12-04T10:54:33;100809.00;;;12.86;40.76
45441;BME280;31189;38.790;-77.084;2023-12-04T10:57:01;100803.74;;;12.85;40.12
45441;BME280;31189;38.790;-77.084;2023-12-04T10:59:28;100813.62;;;12.24;41.28
45441;BME280;31189;38.790;-77.084;2023-12-04T11:01:52;100816.26;;;12.85;40.79
45441;BME280;31189;38.790;-77.084;2023-12-04T11:04:18;100810.14;;;12.87;40.04
45441;BME280;31189;38.790;-77.084;2023-12-04T11:06:42;100814.95;;;12.84;41.05
45441;BME280;31189;38.790;-77.084;2023-12-04T11:09:07;100806.51;;;12.77;40.58
45441;BME280;31189;38.790;-77.084;2023-12-04T11:11:35;100809.11;;;12.55;41.11
45441;BME280;31189;38.790;-77.084;2023-12-04T11:14:01;100812.34;;;12.26;41.49
45441;BME280;31189;38.790;-77.084;2023-12-04T11:16:29;100823.02;;;11.31;40.74
45441;BME280;31189;38.790;-77.084;2023-12-04T11:18:55;100830.99;;;12.60;40.01
45441;BME280;31189;38.790;-77.084;2023-12-04T11:21:16;100839.95;;;12.90;39.79
45441;BME280;31189;38.790;-77.084;2023-12-04T11:23:42;100843.23;;;12.66;40.74
45441;BME280;31189;38.790;-77.084;2023-12-04T11:26:08;100842.81;;;12.84;40.12
45441;BME280;31189;38.790;-77.084;2023-12-04T11:28:33;100841.56;;;11.52;43.00
45441;BME280;31189;38.790;-77.084;2023-12-04T11:30:58;100839.95;;;12.69;40.76
45441;BME280;31189;38.790;-77.084;2023-12-04T11:33:23;100840.76;;;12.92;40.51
45441;BME280;31189;38.790;-77.084;2023-12-04T11:35:50;100842.50;;;11.78;43.26
45441;BME280;31189;38.790;-77.084;2023-12-04T11:38:15;100841.06;;;12.59;41.74
45441;BME280;31189;38.790;-77.084;2023-12-04T11:40:41;100840.10;;;12.46;41.52
45441;BME280;31189;38.790;-77.084;2023-12-04T11:45:32;100837.34;;;12.47;42.64
45441;BME280;31189;38.790;-77.084;2023-12-04T11:47:58;100834.90;;;12.37;42.56
45441;BME280;31189;38.790;-77.084;2023-12-04T11:50:24;100831.23;;;12.68;42.56
45441;BME280;31189;38.790;-77.084;2023-12-04T11:52:49;100829.83;;;12.24;42.47
45441;BME280;31189;38.790;-77.084;2023-12-04T11:55:16;100830.77;;;12.05;42.13
45441;BME280;31189;38.790;-77.084;2023-12-04T11:57:40;100838.29;;;11.61;42.55
45441;BME280;31189;38.790;-77.084;2023-12-04T12:00:11;100845.65;;;12.32;41.82
45441;BME280;31189;38.790;-77.084;2023-12-04T12:02:31;100844.50;;;11.57;43.76
45441;BME280;31189;38.790;-77.084;2023-12-04T12:04:58;100851.82;;;9.85;45.28
45441;BME280;31189;38.790;-77.084;2023-12-04T12:07:23;100852.58;;;10.89;44.33
45441;BME280;31189;38.790;-77.084;2023-12-04T12:09:48;100848.42;;;11.64;43.99
45441;BME280;31189;38.790;-77.084;2023-12-04T12:12:14;100845.54;;;12.10;43.52
45441;BME280;31189;38.790;-77.084;2023-12-04T12:14:39;100842.10;;;11.46;43.56
45441;BME280;31189;38.790;-77.084;2023-12-04T12:17:05;100844.51;;;11.62;44.24
45441;BME280;31189;38.790;-77.084;2023-12-04T12:19:31;100847.63;;;11.80;43.08
45441;BME280;31189;38.790;-77.084;2023-12-04T12:21:57;100839.99;;;10.89;45.18
45441;BME280;31189;38.790;-77.084;2023-12-04T12:24:23;100843.62;;;11.63;43.88
45441;BME280;31189;38.790;-77.084;2023-12-04T12:26:48;100844.01;;;11.53;43.44